Time;durP1;ratioP1;P1;durP2;ratioP2;P2;SDS_P1;SDS_P2;PMS_P1;PMS_P2;Temp;Humidity;BMP_temperature;BMP_pressure;BME280_temperature;BME280_humidity;BME280_pressure;Samples;Min_cycle;Max_cycle;Signal;HPM_P1;HPM_P2
2020/12/08 00:00:52;;;;;;;6.10;5.50;;;;;;;6.20;92.01;99812.84;4993278;28;20848;-70
2020/12/08 00:03:20;;;;;;;6.00;5.50;;;;;;;6.15;91.82;99804.72;5010266;28;20853;-70
2020/12/08 00:05:45;;;;;;;6.13;5.40;;;;;;;6.05;91.72;99804.69;4976598;28;20271;-70
2020/12/08 00:08:14;;;;;;;5.67;5.17;;;;;;;6.15;92.01;99800.16;5009544;28;20267;-70
2020/12/08 00:10:39;;;;;;;5.90;5.30;;;;;;;6.10;92.25;99801.19;5009840;28;20231;-70
2020/12/08 00:13:05;;;;;;;6.07;5.47;;;;;;;6.20;91.62;99802.06;4996102;28;20169;-70
2020/12/08 00:15:30;;;;;;;6.20;5.60;;;;;;;6.17;91.59;99806.09;4993814;28;20229;-70
2020/12/08 00:17:56;;;;;;;5.67;5.17;;;;;;;6.15;92.00;99799.34;5011876;28;20193;-70
2020/12/08 00:20:22;;;;;;;5.70;5.20;;;;;;;6.08;91.95;99790.72;4992558;28;20235;-70
2020/12/08 00:22:47;;;;;;;6.20;5.13;;;;;;;5.89;92.80;99786.03;4988612;28;20185;-70
2020/12/08 00:25:16;;;;;;;5.77;5.27;;;;;;;5.89;93.38;99794.13;5009171;28;20173;-70
2020/12/08 00:27:41;;;;;;;5.40;4.90;;;;;;;5.82;94.03;99799.75;4993739;28;20213;-70
2020/12/08 00:30:16;;;;;;;5.57;5.07;;;;;;;5.79;94.25;99794.88;4992985;28;20553;-70
2020/12/08 00:32:42;;;;;;;5.67;4.90;;;;;;;5.85;94.06;99793.81;5009505;28;20180;-69
2020/12/08 00:35:13;;;;;;;5.37;4.87;;;;;;;5.91;93.50;99791.97;4995499;28;20207;-71
2020/12/08 00:37:43;;;;;;;5.30;4.80;;;;;;;5.80;94.27;99795.69;4996694;28;20197;-70
2020/12/08 00:40:08;;;;;;;5.37;4.87;;;;;;;5.77;94.16;99791.66;5028503;28;20188;-69
2020/12/08 00:42:36;;;;;;;5.33;4.83;;;;;;;5.81;94.09;99795.44;5029582;28;20173;-70
2020/12/08 00:45:01;;;;;;;5.10;4.60;;;;;;;5.81;94.08;99797.31;4996265;28;20184;-71
2020/12/08 00:47:27;;;;;;;6.63;4.47;;;;;;;5.92;93.81;99789.03;5012191;28;20224;-70
2020/12/08 00:49:55;;;;;;;5.10;4.60;;;;;;;5.95;92.92;99777.72;5009392;28;20181;-72
2020/12/08 00:52:21;;;;;;;5.33;4.83;;;;;;;5.92;93.52;99783.63;4992407;28;20233;-70
2020/12/08 00:54:46;;;;;;;5.20;4.70;;;;;;;5.81;93.91;99781.97;4992609;28;20193;-72
2020/12/08 00:57:21;;;;;;;5.00;4.60;;;;;;;5.80;93.70;99779.53;5008337;28;20224;-70
2020/12/08 00:59:50;;;;;;;4.63;4.23;;;;;;;5.86;93.71;99779.31;4993209;28;20189;-70
2020/12/08 01:02:18;;;;;;;4.93;4.40;;;;;;;5.85;93.79;99777.66;5008887;28;20220;-70
2020/12/08 01:04:47;;;;;;;4.77;4.37;;;;;;;5.89;93.13;99778.75;4992858;28;20189;-69
2020/12/08 01:07:17;;;;;;;5.20;4.70;;;;;;;5.72;93.84;99777.31;4992832;28;20714;-70
2020/12/08 01:09:43;;;;;;;4.90;4.50;;;;;;;5.76;93.51;99778.44;4992829;28;20255;-70
2020/12/08 01:12:14;;;;;;;4.93;4.53;;;;;;;5.76;93.40;99783.81;4992523;28;20225;-71
2020/12/08 01:14:40;;;;;;;4.90;4.40;;;;;;;5.57;94.19;99781.81;4993318;28;20223;-70
2020/12/08 01:17:06;;;;;;;4.80;4.40;;;;;;;5.41;94.41;99775.53;4992120;28;20264;-70
2020/12/08 01:19:37;;;;;;;5.20;4.70;;;;;;;5.34;94.30;99781.41;5000910;28;20192;-70
2020/12/08 01:22:07;;;;;;;5.10;4.70;;;;;;;5.33;94.36;99790.53;5012307;28;20941;-71
2020/12/08 01:24:35;;;;;;;5.10;4.70;;;;;;;5.32;94.37;99781.66;4996435;28;20184;-70
2020/12/08 01:27:02;;;;;;;4.80;4.40;;;;;;;5.34;94.36;99786.78;4995977;28;20577;-70
2020/12/08 01:29:27;;;;;;;5.57;5.07;;;;;;;5.29;94.74;99798.31;4996331;28;20185;-70
2020/12/08 01:31:54;;;;;;;6.20;5.20;;;;;;;5.37;94.59;99787.88;4981014;28;20713;-70
2020/12/08 01:34:23;;;;;;;5.60;5.10;;;;;;;5.41;94.28;99791.69;4981147;28;20651;-70
2020/12/08 01:36:54;;;;;;;5.20;4.70;;;;;;;5.50;94.05;99789.31;4996762;28;20583;-70
2020/12/08 01:39:22;;;;;;;5.03;4.53;;;;;;;5.48;93.62;99791.47;4996679;28;20671;-70
2020/12/08 01:41:50;;;;;;;5.63;5.13;;;;;;;5.40;93.99;99789.25;5012674;28;20252;-70
2020/12/08 01:44:17;;;;;;;5.43;4.93;;;;;;;5.51;93.78;99786.38;5013744;28;20181;-70
2020/12/08 01:46:43;;;;;;;5.13;4.70;;;;;;;5.53;93.28;99799.56;4994976;28;20235;-70
2020/12/08 01:49:09;;;;;;;4.97;4.47;;;;;;;5.55;93.32;99792.84;5018791;28;20188;-70
2020/12/08 01:51:36;;;;;;;4.83;4.43;;;;;;;5.45;93.40;99802.75;5011241;28;20221;-70
2020/12/08 01:54:02;;;;;;;5.10;4.63;;;;;;;5.35;93.70;99797.31;5012428;28;20207;-70
2020/12/08 01:56:38;;;;;;;4.90;4.40;;;;;;;5.30;94.06;99793.78;5011199;28;20224;-71
2020/12/08 01:59:06;;;;;;;5.50;4.90;;;;;;;5.36;94.29;99793.53;5012182;28;20181;-70
2020/12/08 02:01:39;;;;;;;5.10;4.70;;;;;;;5.63;93.39;99797.72;5027640;28;20228;-71
2020/12/08 02:04:08;;;;;;;5.47;4.97;;;;;;;5.56;92.53;99804.41;4996160;28;20177;-71
2020/12/08 02:06:35;;;;;;;6.03;5.53;;;;;;;5.43;94.10;99799.50;5010894;28;20232;-71
2020/12/08 02:09:01;;;;;;;6.50;5.90;;;;;;;5.56;93.78;99799.84;5028292;28;20185;-71
2020/12/08 02:11:33;;;;;;;6.07;5.47;;;;;;;5.61;93.84;99801.78;5027239;28;20283;-70
2020/12/08 02:14:00;;;;;;;6.77;5.47;;;;;;;5.64;93.26;99802.06;5011886;28;20564;-70
2020/12/08 02:16:28;;;;;;;5.90;5.30;;;;;;;5.51;93.54;99799.00;5010936;28;20221;-71
2020/12/08 02:18:56;;;;;;;5.37;4.87;;;;;;;5.33;94.11;99793.22;5011216;28;20674;-70
2020/12/08 02:21:35;;;;;;;5.07;4.67;;;;;;;5.12;95.59;99797.66;5014128;28;20590;-70
2020/12/08 02:24:08;;;;;;;4.93;4.53;;;;;;;5.34;95.07;99809.13;5008560;28;20209;-70
2020/12/08 02:26:37;;;;;;;4.80;4.40;;;;;;;5.34;95.18;99804.53;4994662;28;20638;-70
2020/12/08 02:29:06;;;;;;;5.30;4.80;;;;;;;5.41;95.14;99801.66;4979765;28;20177;-70
2020/12/08 02:31:38;;;;;;;4.90;4.50;;;;;;;5.16;96.32;99804.16;5011337;28;20247;-70
2020/12/08 02:34:08;;;;;;;5.10;4.60;;;;;;;5.33;95.95;99807.53;4995436;28;20603;-70
2020/12/08 02:36:35;;;;;;;5.40;4.90;;;;;;;5.33;96.25;99804.84;5010815;28;20608;-70
2020/12/08 02:39:03;;;;;;;5.03;4.63;;;;;;;5.17;96.56;99803.09;5012490;28;20239;-70
2020/12/08 02:41:29;;;;;;;5.17;4.67;;;;;;;5.19;97.10;99797.47;5029423;28;20264;-70
2020/12/08 02:43:54;;;;;;;5.47;4.97;;;;;;;5.10;97.66;99797.13;5015025;28;20256;-70
2020/12/08 02:46:22;;;;;;;5.53;4.90;;;;;;;4.98;98.04;99801.88;5015588;28;20216;-71
2020/12/08 02:48:49;;;;;;;4.70;4.30;;;;;;;4.88;98.74;99800.19;5016092;28;20184;-70
2020/12/08 02:51:18;;;;;;;4.90;4.43;;;;;;;4.91;99.38;99810.41;5011671;28;20256;-70
2020/12/08 02:53:46;;;;;;;4.70;4.30;;;;;;;5.03;98.52;99815.34;4995834;28;20185;-70
2020/12/08 02:56:13;;;;;;;5.13;4.73;;;;;;;4.88;99.87;99810.94;4994110;28;20212;-70
2020/12/08 02:58:41;;;;;;;5.17;4.67;;;;;;;4.91;99.78;99818.47;4994528;28;20565;-70
2020/12/08 03:01:07;;;;;;;5.20;4.73;;;;;;;4.92;99.79;99815.53;4994214;28;20224;-70
2020/12/08 03:03:33;;;;;;;5.10;4.70;;;;;;;4.96;99.21;99821.22;4994813;28;20181;-70
2020/12/08 03:05:59;;;;;;;5.00;4.60;;;;;;;4.97;99.29;99813.69;4993225;28;20299;-70
2020/12/08 03:08:28;;;;;;;5.17;4.67;;;;;;;5.10;98.57;99815.94;5010880;28;20256;-70
2020/12/08 03:10:53;;;;;;;5.20;4.70;;;;;;;5.17;98.39;99816.56;4994026;28;20232;-70
2020/12/08 03:13:21;;;;;;;5.93;5.33;;;;;;;5.29;97.89;99817.16;4994853;28;20185;-70
2020/12/08 03:15:50;;;;;;;6.27;5.17;;;;;;;5.28;97.80;99817.44;4993545;28;20227;-70
2020/12/08 03:18:16;;;;;;;6.10;5.20;;;;;;;5.37;97.48;99814.00;4979506;28;20197;-70
2020/12/08 03:20:42;;;;;;;6.00;5.40;;;;;;;5.37;97.21;99814.00;4993327;28;20221;-70
2020/12/08 03:23:10;;;;;;;5.83;5.33;;;;;;;5.30;97.26;99818.78;4994126;28;20654;-70
2020/12/08 03:25:43;;;;;;;6.17;5.57;;;;;;;5.19;97.90;99819.78;4994415;28;20255;-70
2020/12/08 03:28:12;;;;;;;5.77;5.20;;;;;;;5.28;97.58;99817.44;5010353;28;20308;-70
2020/12/08 03:30:42;;;;;;;5.93;5.40;;;;;;;5.28;97.39;99812.88;4994180;28;20228;-71
2020/12/08 03:33:08;;;;;;;6.33;5.73;;;;;;;5.38;97.49;99808.38;4994246;28;20220;-71
2020/12/08 03:35:36;;;;;;;6.17;5.57;;;;;;;5.43;96.99;99810.28;4992914;28;20221;-71
2020/12/08 03:38:02;;;;;;;6.03;5.43;;;;;;;5.44;96.90;99809.22;4994513;28;20201;-69
2020/12/08 03:40:28;;;;;;;6.33;5.30;;;;;;;5.46;96.72;99813.25;4993451;28;20220;-72
2020/12/08 03:42:56;;;;;;;6.23;5.63;;;;;;;5.44;96.89;99807.31;4993806;28;20187;-70
2020/12/08 03:45:24;;;;;;;5.67;5.17;;;;;;;5.49;96.79;99809.22;4995030;28;20253;-70
2020/12/08 03:47:58;;;;;;;6.67;6.07;;;;;;;5.46;96.62;99809.75;5012825;28;20690;-70
2020/12/08 03:50:31;;;;;;;7.27;6.37;;;;;;;5.50;96.83;99816.25;5014048;28;20221;-70
2020/12/08 03:52:58;;;;;;;7.07;6.37;;;;;;;5.44;96.81;99814.59;5011259;28;20188;-70
2020/12/08 03:55:27;;;;;;;7.17;6.47;;;;;;;5.49;96.65;99809.22;4998165;28;20244;-71
2020/12/08 03:57:54;;;;;;;7.03;6.33;;;;;;;5.59;96.34;99815.50;5014732;28;20201;-70
2020/12/08 04:00:23;;;;;;;6.40;5.80;;;;;;;5.60;96.36;99821.69;4995878;28;20726;-70
2020/12/08 04:02:50;;;;;;;6.70;6.10;;;;;;;5.52;96.17;99819.47;4997712;28;20260;-70
2020/12/08 04:05:20;;;;;;;7.00;6.20;;;;;;;5.53;96.38;99824.63;5011800;28;20722;-70
2020/12/08 04:07:49;;;;;;;6.93;6.23;;;;;;;5.50;96.31;99824.31;5018398;28;20208;-70
2020/12/08 04:10:24;;;;;;;6.90;6.30;;;;;;;5.51;96.40;99823.22;5022291;28;20760;-73
2020/12/08 04:12:51;;;;;;;7.23;6.53;;;;;;;5.45;96.48;99829.66;4987443;28;20193;-70
2020/12/08 04:15:17;;;;;;;7.67;6.97;;;;;;;5.55;96.57;99818.94;5027407;28;20192;-70
2020/12/08 04:17:43;;;;;;;8.10;6.97;;;;;;;5.58;96.19;99823.81;4993567;28;20577;-70
2020/12/08 04:20:11;;;;;;;7.70;7.00;;;;;;;5.65;96.12;99824.41;5026612;28;20206;-70
2020/12/08 04:22:39;;;;;;;8.17;7.37;;;;;;;5.67;95.39;99835.72;5022073;28;20176;-71
2020/12/08 04:25:05;;;;;;;7.97;7.17;;;;;;;5.54;95.99;99833.50;5011803;28;20263;-70
2020/12/08 04:27:32;;;;;;;7.63;6.93;;;;;;;5.59;96.22;99836.22;4989736;28;20216;-70
2020/12/08 04:30:06;;;;;;;8.27;7.47;;;;;;;5.59;96.11;99841.63;5011145;28;20173;-70
2020/12/08 04:32:38;;;;;;;8.00;7.20;;;;;;;5.64;95.63;99838.94;5000398;28;20216;-70
2020/12/08 04:35:03;;;;;;;7.93;7.23;;;;;;;5.47;96.15;99835.59;4976218;28;20192;-70
2020/12/08 04:37:31;;;;;;;7.57;6.87;;;;;;;5.50;96.45;99837.78;5022081;28;20692;-70
2020/12/08 04:39:57;;;;;;;9.13;7.83;;;;;;;5.40;96.69;99835.00;4995411;28;20192;-70
2020/12/08 04:42:22;;;;;;;7.77;7.10;;;;;;;5.41;96.74;99831.25;5009023;28;20213;-70
2020/12/08 04:44:48;;;;;;;8.83;7.93;;;;;;;5.43;96.72;99832.63;4993043;28;20169;-70
2020/12/08 04:47:20;;;;;;;8.57;7.67;;;;;;;5.54;96.15;99833.50;5003416;28;20255;-70
2020/12/08 04:49:47;;;;;;;8.53;7.63;;;;;;;5.43;96.80;99842.56;5012280;28;20191;-70
2020/12/08 04:52:14;;;;;;;9.43;8.00;;;;;;;5.36;96.98;99841.97;5008160;28;20288;-71
2020/12/08 04:54:44;;;;;;;8.70;7.83;;;;;;;5.39;97.02;99842.28;5006419;28;20533;-71
2020/12/08 04:57:10;;;;;;;9.30;8.30;;;;;;;5.44;96.46;99839.63;4993182;28;20274;-70
2020/12/08 04:59:38;;;;;;;9.37;8.47;;;;;;;5.43;96.74;99837.19;4995851;28;20765;-70
2020/12/08 05:02:06;;;;;;;9.40;8.47;;;;;;;5.26;96.95;99836.53;5012782;28;20231;-70
2020/12/08 05:04:32;;;;;;;9.07;8.20;;;;;;;5.12;98.42;99823.78;4996811;28;20189;-69
2020/12/08 05:07:17;;;;;;;9.10;8.03;;;;;;;5.31;97.81;99833.06;4996130;28;20777;-70
2020/12/08 05:09:44;;;;;;;10.77;8.40;;;;;;;5.37;97.74;99835.53;5012543;28;20598;-72
2020/12/08 05:12:13;;;;;;;9.50;8.60;;;;;;;5.40;96.95;99838.53;4995984;28;20225;-70
2020/12/08 05:14:46;;;;;;;9.47;8.57;;;;;;;5.40;97.29;99837.69;4996399;28;20193;-70
2020/12/08 05:17:12;;;;;;;9.70;8.70;;;;;;;5.23;97.54;99841.63;4996359;28;20603;-71
2020/12/08 05:19:40;;;;;;;9.47;8.30;;;;;;;5.09;97.68;99840.41;5009044;28;20204;-69
2020/12/08 05:22:09;;;;;;;9.47;8.07;;;;;;;5.21;97.25;99841.88;5015700;28;20219;-72
2020/12/08 05:24:35;;;;;;;9.93;8.93;;;;;;;5.11;97.80;99839.13;5016431;28;20254;-72
2020/12/08 05:27:04;;;;;;;9.53;8.53;;;;;;;4.97;98.50;99849.75;5032651;28;20674;-70
2020/12/08 05:29:33;;;;;;;10.07;9.07;;;;;;;5.06;98.71;99836.38;5017927;28;20252;-70
2020/12/08 05:32:20;;;;;;;10.17;9.13;;;;;;;5.28;97.70;99845.16;5035565;28;20289;-70
2020/12/08 05:34:47;;;;;;;10.23;9.13;;;;;;;5.23;97.65;99839.72;5036562;28;20186;-70
2020/12/08 05:37:14;;;;;;;10.00;8.93;;;;;;;5.19;97.78;99844.00;5015600;28;20311;-70
2020/12/08 05:39:42;;;;;;;12.13;9.80;;;;;;;5.15;97.67;99837.53;4999644;28;20230;-70
2020/12/08 05:42:07;;;;;;;11.63;10.10;;;;;;;5.08;98.07;99834.22;5015724;28;20227;-70
2020/12/08 05:44:33;;;;;;;10.93;9.60;;;;;;;5.02;98.82;99835.28;4998971;28;20184;-70
2020/12/08 05:46:58;;;;;;;12.03;10.70;;;;;;;5.08;97.85;99826.16;5031025;28;20232;-70
2020/12/08 05:49:24;;;;;;;11.37;10.07;;;;;;;5.16;97.88;99833.75;5036917;28;20261;-70
2020/12/08 05:51:50;;;;;;;12.60;10.67;;;;;;;5.22;97.40;99838.13;5041402;28;20216;-70
2020/12/08 05:54:22;;;;;;;10.60;9.50;;;;;;;5.21;97.62;99835.69;5024782;28;20188;-72
2020/12/08 05:56:50;;;;;;;11.93;9.97;;;;;;;5.08;97.52;99838.81;5040141;28;20531;-70
2020/12/08 05:59:28;;;;;;;10.87;9.77;;;;;;;5.00;98.20;99834.72;5016724;28;20724;-69
2020/12/08 06:01:56;;;;;;;10.97;9.87;;;;;;;4.97;98.32;99832.53;5030942;28;20223;-70
2020/12/08 06:04:22;;;;;;;10.57;9.57;;;;;;;4.88;98.59;99840.53;5012357;28;20654;-70
2020/12/08 06:06:52;;;;;;;14.73;11.30;;;;;;;4.86;99.25;99839.97;5032441;28;20240;-70
2020/12/08 06:09:27;;;;;;;11.17;9.87;;;;;;;4.94;98.69;99837.59;5001751;28;20185;-70
2020/12/08 06:11:56;;;;;;;12.40;10.37;;;;;;;4.93;98.94;99845.91;4982950;28;20278;-70
2020/12/08 06:14:34;;;;;;;13.63;10.47;;;;;;;5.03;98.63;99842.25;4995205;28;20267;-70
2020/12/08 06:17:05;;;;;;;11.60;10.40;;;;;;;5.08;98.63;99849.56;5010401;28;20225;-70
2020/12/08 06:19:31;;;;;;;13.13;11.73;;;;;;;5.17;97.95;99859.59;5002220;28;20837;-70
2020/12/08 06:21:57;;;;;;;13.27;11.67;;;;;;;5.12;98.25;99846.09;4989138;28;20213;-70
2020/12/08 06:24:23;;;;;;;14.00;11.67;;;;;;;5.18;98.11;99853.16;5010521;28;20939;-70
2020/12/08 06:26:48;;;;;;;12.63;11.33;;;;;;;5.20;98.04;99844.81;5009972;28;20244;-70
2020/12/08 06:29:14;;;;;;;13.03;11.57;;;;;;;5.17;97.75;99854.22;4978347;28;20189;-70
2020/12/08 06:31:46;;;;;;;12.93;11.50;;;;;;;5.16;97.95;99855.28;4992889;28;20228;-70
2020/12/08 06:34:31;;;;;;;12.77;11.40;;;;;;;5.18;97.90;99861.25;4995771;28;20271;-70
2020/12/08 06:37:09;;;;;;;13.23;11.40;;;;;;;5.22;97.81;99862.34;5009131;28;20221;-70
2020/12/08 06:39:37;;;;;;;14.27;11.37;;;;;;;5.14;98.02;99860.09;4996324;28;20181;-70
2020/12/08 06:42:13;;;;;;;13.40;12.00;;;;;;;5.21;97.99;99863.41;4994705;28;20225;-70
2020/12/08 06:44:38;;;;;;;13.33;11.87;;;;;;;5.24;97.43;99868.28;4995120;28;20208;-70
2020/12/08 06:47:07;;;;;;;13.23;11.80;;;;;;;5.27;97.51;99869.63;5014600;28;20220;-71
2020/12/08 06:49:41;;;;;;;13.47;12.07;;;;;;;5.18;97.47;99863.94;5012981;28;20292;-70
2020/12/08 06:52:10;;;;;;;12.97;11.40;;;;;;;5.23;97.17;99872.03;5008988;28;20225;-70
2020/12/08 06:54:37;;;;;;;15.50;12.23;;;;;;;5.40;96.49;99870.00;5011478;28;20276;-70
2020/12/08 06:57:06;;;;;;;15.13;11.97;;;;;;;5.40;96.13;99865.47;5026262;28;20328;-70
2020/12/08 06:59:34;;;;;;;13.90;11.80;;;;;;;5.37;96.38;99865.97;5011479;28;20235;-70
2020/12/08 07:01:59;;;;;;;15.23;12.17;;;;;;;5.34;96.23;99865.66;5010318;28;20221;-70
2020/12/08 07:04:27;;;;;;;13.57;12.17;;;;;;;5.25;96.39;99872.59;4994639;28;20185;-71
2020/12/08 07:06:52;;;;;;;15.80;12.50;;;;;;;5.23;97.07;99880.09;5026911;28;20307;-71
2020/12/08 07:09:18;;;;;;;15.50;12.43;;;;;;;5.22;96.59;99870.41;5010997;28;20200;-69
2020/12/08 07:11:44;;;;;;;13.93;12.47;;;;;;;5.24;96.84;99870.97;5010191;28;20233;-72
2020/12/08 07:14:10;;;;;;;13.40;11.97;;;;;;;5.21;97.00;99882.25;5010593;28;20181;-69
2020/12/08 07:16:36;;;;;;;13.70;12.20;;;;;;;5.19;97.26;99883.56;5027179;28;20603;-69
2020/12/08 07:19:05;;;;;;;13.60;11.63;;;;;;;5.12;97.80;99878.41;5020327;28;20196;-71
2020/12/08 07:21:38;;;;;;;15.63;12.73;;;;;;;5.18;97.54;99876.56;5008975;28;20220;-70
2020/12/08 07:24:06;;;;;;;14.67;11.93;;;;;;;5.08;97.92;99871.91;4992213;28;20649;-70
2020/12/08 07:26:31;;;;;;;15.17;12.90;;;;;;;5.16;97.47;99876.81;4978177;28;20660;-69
2020/12/08 07:28:58;;;;;;;15.00;13.23;;;;;;;5.22;96.99;99870.41;4995121;28;20181;-70
2020/12/08 07:31:27;;;;;;;16.93;13.27;;;;;;;5.20;97.17;99875.25;4977804;28;20225;-70
2020/12/08 07:33:53;;;;;;;15.47;13.27;;;;;;;5.29;96.44;99873.69;5011047;28;20205;-70
2020/12/08 07:36:32;;;;;;;16.23;12.87;;;;;;;5.25;96.54;99883.34;4977298;28;20268;-69
2020/12/08 07:39:00;;;;;;;16.33;13.20;;;;;;;5.14;96.60;99892.41;4978846;28;20199;-70
2020/12/08 07:41:29;;;;;;;14.40;12.90;;;;;;;5.15;96.82;99894.03;5009980;28;20232;-71
2020/12/08 07:43:55;;;;;;;15.13;13.20;;;;;;;5.18;96.85;99887.31;5011343;28;20185;-70
2020/12/08 07:46:30;;;;;;;17.47;13.93;;;;;;;5.17;97.12;99889.22;5025837;28;20220;-70
2020/12/08 07:49:06;;;;;;;15.03;12.90;;;;;;;5.10;97.03;99891.28;5026509;28;20540;-70
2020/12/08 07:51:32;;;;;;;17.27;13.63;;;;;;;5.18;97.16;99882.78;4992669;28;20726;-71
2020/12/08 07:54:02;;;;;;;16.00;13.43;;;;;;;5.19;97.04;99884.38;5035020;28;20658;-70
2020/12/08 07:56:31;;;;;;;16.27;13.37;;;;;;;5.18;96.63;99885.47;5009471;28;20608;-70
2020/12/08 07:58:59;;;;;;;15.57;13.53;;;;;;;5.18;96.90;99882.78;4994712;28;20220;-70
2020/12/08 08:01:25;;;;;;;16.20;13.53;;;;;;;5.25;96.41;99893.31;5009655;28;20224;-70
2020/12/08 08:03:50;;;;;;;15.63;13.93;;;;;;;5.33;95.87;99887.44;4994149;28;20280;-70
2020/12/08 08:06:17;;;;;;;16.10;13.53;;;;;;;5.32;95.42;99886.63;5009250;28;20231;-70
2020/12/08 08:08:46;;;;;;;16.50;13.43;;;;;;;5.25;95.45;99888.72;4995003;28;20640;-71
2020/12/08 08:11:12;;;;;;;16.57;13.63;;;;;;;5.20;95.94;99891.41;5011431;28;20217;-70
2020/12/08 08:13:37;;;;;;;16.00;13.23;;;;;;;5.20;96.38;99891.41;4997615;28;20618;-70
2020/12/08 08:16:03;;;;;;;16.17;13.80;;;;;;;5.19;96.69;99889.75;4992816;28;20251;-70
2020/12/08 08:18:33;;;;;;;16.67;13.70;;;;;;;5.31;96.10;99887.72;4979761;28;20230;-70
2020/12/08 08:20:59;;;;;;;16.97;14.13;;;;;;;5.37;95.85;99887.50;5005018;28;20725;-70
2020/12/08 08:23:25;;;;;;;16.27;13.83;;;;;;;5.46;95.58;99879.75;5020821;28;20183;-70
2020/12/08 08:25:51;;;;;;;16.67;14.67;;;;;;;5.54;94.74;99882.78;5011691;28;20208;-70
2020/12/08 08:28:16;;;;;;;15.70;13.53;;;;;;;5.52;94.38;99889.50;5029573;28;20214;-70
2020/12/08 08:30:42;;;;;;;17.13;14.60;;;;;;;5.48;94.72;99888.41;4995484;28;20224;-71
2020/12/08 08:33:07;;;;;;;16.17;13.10;;;;;;;5.54;95.09;99892.75;5010278;28;20208;-69
2020/12/08 08:35:33;;;;;;;17.40;13.93;;;;;;;5.59;95.14;99887.41;5021247;28;20217;-70
2020/12/08 08:37:59;;;;;;;15.33;13.43;;;;;;;5.73;94.60;99889.38;4995371;28;20208;-70
2020/12/08 08:40:25;;;;;;;18.37;15.10;;;;;;;5.79;94.16;99891.88;5009004;28;20604;-70
2020/12/08 08:42:55;;;;;;;16.50;13.80;;;;;;;5.83;92.74;99892.97;5042685;28;20234;-70
2020/12/08 08:45:23;;;;;;;16.97;14.23;;;;;;;5.92;92.91;99893.31;5028308;28;20302;-71
2020/12/08 08:47:48;;;;;;;16.77;13.60;;;;;;;5.88;92.95;99890.31;5030690;28;20212;-70
2020/12/08 08:50:14;;;;;;;15.37;13.73;;;;;;;5.93;93.64;99892.22;5004026;28;20197;-70
2020/12/08 08:52:40;;;;;;;16.43;14.40;;;;;;;6.08;92.74;99895.00;5028902;28;20318;-70
2020/12/08 08:55:08;;;;;;;15.53;13.80;;;;;;;6.14;92.52;99898.25;5008447;28;20268;-70
2020/12/08 08:57:34;;;;;;;16.03;13.80;;;;;;;6.10;92.01;99899.06;5009596;28;20185;-71
2020/12/08 09:00:00;;;;;;;15.73;13.80;;;;;;;6.09;92.23;99908.22;4993128;28;20530;-70
2020/12/08 09:02:25;;;;;;;16.23;13.60;;;;;;;6.10;92.00;99896.38;5008640;28;20251;-70
2020/12/08 09:04:53;;;;;;;14.77;13.13;;;;;;;6.21;91.56;99903.44;4992711;28;20181;-70
2020/12/08 09:07:21;;;;;;;16.07;13.13;;;;;;;6.23;91.37;99899.38;4992966;28;20260;-70
2020/12/08 09:09:46;;;;;;;14.60;13.00;;;;;;;6.36;90.39;99908.88;4993850;28;20181;-71
2020/12/08 09:12:12;;;;;;;15.73;13.40;;;;;;;6.50;89.26;99904.63;4992392;28;20248;-70
2020/12/08 09:14:38;;;;;;;15.37;13.63;;;;;;;6.50;89.30;99904.63;5009196;28;20216;-70
2020/12/08 09:17:03;;;;;;;14.87;13.23;;;;;;;6.49;89.08;99903.81;4992484;28;20229;-70
2020/12/08 09:19:31;;;;;;;16.97;13.57;;;;;;;6.50;89.27;99907.31;5016411;28;20258;-71
2020/12/08 09:21:57;;;;;;;15.03;13.13;;;;;;;6.48;89.08;99904.06;5041005;28;20224;-71
2020/12/08 09:24:22;;;;;;;15.40;12.97;;;;;;;6.57;88.30;99901.44;5012402;28;20181;-71
2020/12/08 09:26:50;;;;;;;14.50;12.80;;;;;;;6.51;88.67;99903.56;5012367;28;20787;-71
2020/12/08 09:29:16;;;;;;;14.90;13.23;;;;;;;6.45;88.38;99907.31;5013564;28;20295;-70
2020/12/08 09:31:41;;;;;;;14.53;12.93;;;;;;;6.50;88.50;99904.63;5013046;28;20781;-70
2020/12/08 09:34:07;;;;;;;17.63;14.20;;;;;;;6.49;89.11;99897.63;4996444;28;20192;-69
2020/12/08 09:36:35;;;;;;;14.40;12.90;;;;;;;6.44;88.68;99901.09;5028468;28;20919;-69
2020/12/08 09:39:01;;;;;;;15.90;12.73;;;;;;;6.44;88.45;99905.69;5029476;28;20211;-69
2020/12/08 09:41:29;;;;;;;14.83;13.20;;;;;;;6.37;88.61;99910.50;5012762;28;20728;-70
2020/12/08 09:43:55;;;;;;;16.07;13.73;;;;;;;6.45;88.99;99910.00;5016265;28;20180;-69
2020/12/08 09:46:23;;;;;;;16.17;13.47;;;;;;;6.49;88.95;99913.81;5015210;28;20220;-69
2020/12/08 09:48:49;;;;;;;15.27;12.97;;;;;;;6.57;88.62;99912.22;5033180;28;20306;-70
2020/12/08 09:51:16;;;;;;;14.83;13.23;;;;;;;6.55;89.05;99913.53;5023994;28;20754;-70
2020/12/08 09:53:42;;;;;;;14.37;12.87;;;;;;;6.68;88.91;99919.25;5016545;28;20188;-70
2020/12/08 09:56:08;;;;;;;14.30;12.77;;;;;;;6.77;88.59;99917.66;4999157;28;20228;-70
2020/12/08 09:58:33;;;;;;;13.73;12.17;;;;;;;6.72;87.46;99904.16;5032575;28;20737;-70
2020/12/08 10:00:59;;;;;;;14.40;12.63;;;;;;;6.84;86.73;99910.13;5015567;28;20224;-70
2020/12/08 10:03:24;;;;;;;15.53;13.33;;;;;;;6.90;86.43;99914.44;5016123;28;20196;-70
2020/12/08 10:05:52;;;;;;;14.10;12.53;;;;;;;6.95;86.40;99903.69;5015202;28;20224;-70
2020/12/08 10:08:20;;;;;;;14.37;12.87;;;;;;;7.05;86.60;99909.91;5016116;28;20290;-70
2020/12/08 10:10:45;;;;;;;16.70;13.60;;;;;;;7.03;86.19;99913.94;5032041;28;20228;-70
2020/12/08 10:13:16;;;;;;;18.57;13.70;;;;;;;7.11;85.55;99906.13;5000499;28;20234;-71
2020/12/08 10:15:42;;;;;;;17.17;14.40;;;;;;;7.22;85.57;99904.25;5011833;28;20212;-72
2020/12/08 10:18:09;;;;;;;14.37;12.73;;;;;;;7.11;85.88;99916.13;5032173;28;20231;-70
2020/12/08 10:20:36;;;;;;;14.30;12.80;;;;;;;7.23;86.19;99913.97;5006923;28;20228;-70
2020/12/08 10:23:03;;;;;;;16.57;13.70;;;;;;;7.41;85.30;99909.66;4998461;28;20577;-70
2020/12/08 10:25:28;;;;;;;15.37;13.20;;;;;;;7.44;85.12;99906.41;5014618;28;20234;-70
2020/12/08 10:27:56;;;;;;;15.50;13.37;;;;;;;7.45;84.79;99913.44;5015741;28;20362;-70
2020/12/08 10:30:27;;;;;;;14.47;12.80;;;;;;;7.36;84.95;99904.28;5014967;28;20754;-70
2020/12/08 10:32:53;;;;;;;13.57;12.13;;;;;;;7.39;84.53;99901.00;5015730;28;20189;-70
2020/12/08 10:35:21;;;;;;;14.60;12.23;;;;;;;7.50;84.30;99902.63;4997626;28;20289;-71
2020/12/08 10:37:47;;;;;;;14.10;12.40;;;;;;;7.47;83.94;99900.50;5013299;28;20673;-71
2020/12/08 10:40:15;;;;;;;13.47;12.07;;;;;;;7.48;83.78;99899.41;4996504;28;20184;-70
2020/12/08 10:42:42;;;;;;;13.70;11.80;;;;;;;7.51;84.09;99893.47;4995587;28;20173;-71
2020/12/08 10:45:08;;;;;;;13.33;11.90;;;;;;;7.62;83.43;99899.66;4996012;28;20876;-71
2020/12/08 10:47:37;;;;;;;12.33;10.83;;;;;;;7.70;82.62;99900.72;4997608;28;20213;-71
2020/12/08 10:50:03;;;;;;;13.70;11.97;;;;;;;7.76;82.63;99905.03;5021264;28;20195;-71
2020/12/08 10:52:34;;;;;;;13.47;12.03;;;;;;;7.72;82.18;99900.47;5014153;28;20235;-70
2020/12/08 10:55:04;;;;;;;13.43;12.00;;;;;;;7.65;82.71;99913.44;5027450;28;20275;-71
2020/12/08 10:57:30;;;;;;;13.37;11.97;;;;;;;7.50;82.20;99907.22;4995134;28;20225;-69
2020/12/08 10:59:58;;;;;;;13.30;11.90;;;;;;;7.57;82.72;99908.59;4995278;28;20173;-69
2020/12/08 11:02:27;;;;;;;13.60;12.17;;;;;;;7.51;82.45;99909.66;4994348;28;20225;-72
2020/12/08 11:04:55;;;;;;;15.97;12.83;;;;;;;7.38;83.21;99904.81;4994880;28;20676;-68
2020/12/08 11:07:23;;;;;;;15.10;13.57;;;;;;;7.47;83.31;99903.19;4994370;28;20251;-68
2020/12/08 11:09:49;;;;;;;15.07;13.23;;;;;;;7.69;82.52;99901.81;5011124;28;20182;-71
2020/12/08 11:12:14;;;;;;;16.43;13.67;;;;;;;7.58;82.78;99895.88;4994498;28;20229;-70
2020/12/08 11:14:41;;;;;;;14.67;13.13;;;;;;;7.76;82.14;99898.81;5010426;28;20638;-69
2020/12/08 11:17:07;;;;;;;19.97;14.10;;;;;;;7.90;81.87;99895.28;4993888;28;20694;-69
2020/12/08 11:19:32;;;;;;;15.50;13.53;;;;;;;8.03;81.37;99903.63;5022036;28;20199;-70
2020/12/08 11:22:05;;;;;;;15.03;13.43;;;;;;;7.96;81.02;99904.22;5003500;28;20706;-71
2020/12/08 11:24:31;;;;;;;17.47;13.93;;;;;;;7.95;81.31;99906.09;5005183;28;20188;-71
2020/12/08 11:26:56;;;;;;;15.30;13.50;;;;;;;8.13;80.89;99900.97;4992671;28;20715;-71
2020/12/08 11:29:22;;;;;;;15.43;13.73;;;;;;;8.18;80.86;99909.03;5009523;28;20189;-71
2020/12/08 11:31:49;;;;;;;15.37;13.77;;;;;;;8.13;80.63;99908.25;4992506;28;20229;-73
2020/12/08 11:34:15;;;;;;;15.47;13.67;;;;;;;8.04;81.29;99899.88;4977091;28;20608;-70
2020/12/08 11:36:43;;;;;;;15.27;13.30;;;;;;;7.99;81.19;99903.66;4978541;28;20228;-71